createdAt,value
2023-03-30T00:00:24.746Z,13.31
2023-03-30T00:02:54.028Z,13.29
2023-03-30T00:05:24.039Z,13.32
2023-03-30T00:07:52.340Z,13.35
2023-03-30T00:10:22.837Z,13.34
2023-03-30T00:12:52.998Z,13.33
2023-03-30T00:15:23.896Z,13.33
2023-03-30T00:17:55.092Z,13.36
2023-03-30T00:20:23.868Z,13.08
2023-03-30T00:22:52.344Z,13.32
2023-03-30T00:25:23.440Z,13.31
2023-03-30T00:27:52.001Z,13.12
2023-03-30T00:30:20.856Z,13.29
2023-03-30T00:32:49.253Z,13.28
2023-03-30T00:35:17.831Z,13.27
2023-03-30T00:37:49.591Z,13.28
2023-03-30T00:40:20.383Z,13.31
2023-03-30T00:42:51.206Z,13.29
2023-03-30T00:45:24.620Z,13.31
2023-03-30T00:48:02.802Z,13.18
2023-03-30T00:50:36.291Z,13.21
2023-03-30T00:53:11.877Z,13.18
2023-03-30T00:55:41.997Z,13.15
2023-03-30T00:58:13.179Z,13.12
2023-03-30T01:00:43.686Z,13.09
2023-03-30T01:03:18.929Z,13.09
2023-03-30T01:05:47.721Z,13.08
2023-03-30T01:08:18.430Z,13.09
2023-03-30T01:10:48.189Z,13.14
2023-03-30T01:13:18.865Z,13.15
2023-03-30T01:16:01.403Z,13.16
2023-03-30T01:18:38.770Z,13.16
2023-03-30T01:21:35.779Z,13.16
2023-03-30T01:24:50.262Z,13.13
2023-03-30T01:27:46.384Z,13.13
2023-03-30T01:30:31.082Z,13.10
2023-03-30T01:33:25.704Z,13.09
2023-03-30T01:36:34.282Z,13.04
2023-03-30T01:39:23.522Z,13.04
2023-03-30T01:41:59.696Z,13.07
2023-03-30T01:44:35.812Z,13.07
2023-03-30T01:47:12.162Z,13.07
2023-03-30T01:49:46.459Z,13.03
2023-03-30T01:52:23.341Z,13.06
2023-03-30T01:55:00.510Z,13.11
2023-03-30T01:57:34.107Z,13.13
2023-03-30T02:00:13.205Z,13.14
2023-03-30T02:02:47.231Z,12.96
2023-03-30T02:05:18.787Z,13.10
2023-03-30T02:07:54.079Z,13.12
2023-03-30T02:10:28.786Z,13.14
2023-03-30T02:13:00.169Z,13.16
2023-03-30T02:15:35.013Z,13.16
2023-03-30T02:18:05.098Z,13.14
2023-03-30T02:20:34.607Z,13.14
2023-03-30T02:23:06.226Z,13.14
2023-03-30T02:25:39.196Z,13.14
2023-03-30T02:28:09.778Z,13.06
2023-03-30T02:30:42.554Z,13.02
2023-03-30T02:33:18.624Z,12.99
2023-03-30T02:36:07.151Z,12.96
2023-03-30T02:38:54.679Z,12.86
2023-03-30T02:41:38.880Z,12.80
2023-03-30T02:44:17.441Z,12.73
2023-03-30T02:47:01.175Z,12.70
2023-03-30T02:49:40.617Z,12.65
2023-03-30T02:52:18.622Z,12.60
2023-03-30T02:54:53.709Z,12.54
2023-03-30T02:58:07.850Z,12.04
2023-03-30T03:00:45.898Z,12.57
2023-03-30T03:03:25.128Z,12.54
2023-03-30T03:05:56.538Z,12.52
2023-03-30T03:08:35.365Z,12.47
2023-03-30T03:11:05.738Z,12.41
2023-03-30T03:13:37.158Z,12.28
2023-03-30T03:16:11.265Z,12.35
2023-03-30T03:18:42.469Z,12.33
2023-03-30T03:21:12.507Z,12.32
2023-03-30T03:23:42.644Z,12.32
2023-03-30T03:26:13.138Z,12.31
2023-03-30T03:28:43.046Z,12.34
2023-03-30T03:31:12.659Z,12.31
2023-03-30T03:33:41.864Z,12.29
2023-03-30T03:36:24.155Z,12.27
2023-03-30T03:38:54.982Z,12.26
2023-03-30T03:41:23.391Z,12.25
2023-03-30T03:43:53.539Z,12.25
2023-03-30T03:46:22.024Z,12.21
2023-03-30T03:48:50.397Z,12.24
2023-03-30T03:51:18.881Z,12.26
2023-03-30T03:53:48.430Z,12.27
2023-03-30T03:56:17.071Z,12.27
2023-03-30T03:58:45.452Z,12.29
2023-03-30T04:01:15.447Z,12.33
2023-03-30T04:03:43.807Z,12.29
2023-03-30T04:06:12.602Z,12.27
2023-03-30T04:08:41.274Z,12.29
2023-03-30T04:11:23.180Z,12.31
2023-03-30T04:14:11.753Z,12.30
2023-03-30T04:16:58.418Z,12.24
2023-03-30T04:19:47.050Z,12.19
2023-03-30T04:22:27.629Z,12.20
2023-03-30T04:25:34.129Z,12.13
2023-03-30T04:28:29.902Z,12.14
2023-03-30T04:31:13.078Z,12.04
2023-03-30T04:34:09.658Z,12.21
2023-03-30T04:36:58.233Z,12.24
2023-03-30T04:39:59.025Z,12.26
2023-03-30T04:42:38.010Z,12.29
2023-03-30T04:45:25.135Z,12.23
2023-03-30T04:48:02.718Z,12.19
2023-03-30T04:50:56.014Z,12.17
2023-03-30T04:53:44.618Z,12.17
2023-03-30T04:56:19.274Z,11.96
2023-03-30T04:59:10.334Z,12.20
2023-03-30T05:01:57.472Z,12.23
2023-03-30T05:04:44.858Z,12.21
2023-03-30T05:07:39.313Z,12.20
2023-03-30T05:10:26.619Z,12.23
2023-03-30T05:12:55.647Z,12.25
2023-03-30T05:15:37.294Z,12.25
2023-03-30T05:18:05.808Z,12.28
2023-03-30T05:20:50.913Z,12.26
2023-03-30T05:23:39.984Z,12.24
2023-03-30T05:26:29.089Z,12.22
2023-03-30T05:29:35.761Z,12.22
2023-03-30T05:32:21.694Z,12.21
2023-03-30T05:35:07.908Z,12.21
2023-03-30T05:38:07.597Z,12.23
2023-03-30T05:40:58.421Z,12.21
2023-03-30T05:43:34.176Z,12.19
2023-03-30T05:46:21.657Z,12.19
2023-03-30T05:49:12.815Z,12.16
2023-03-30T05:52:01.687Z,12.10
2023-03-30T05:54:56.038Z,12.10
2023-03-30T05:57:55.132Z,12.10
2023-03-30T06:00:33.521Z,12.16
2023-03-30T06:03:10.415Z,12.21
2023-03-30T06:05:41.479Z,12.24
2023-03-30T06:08:09.908Z,12.26
2023-03-30T06:10:39.035Z,12.26
2023-03-30T06:13:12.024Z,12.28
2023-03-30T06:15:49.840Z,12.30
2023-03-30T06:18:22.699Z,12.30
2023-03-30T06:20:57.493Z,12.30
2023-03-30T06:23:26.431Z,12.28
2023-03-30T06:25:57.832Z,12.26
2023-03-30T06:28:32.384Z,12.26
2023-03-30T06:31:03.319Z,12.29
2023-03-30T06:33:32.840Z,12.30
2023-03-30T06:36:03.204Z,12.31
2023-03-30T06:38:32.166Z,12.30
2023-03-30T06:41:08.461Z,12.30
2023-03-30T06:43:41.198Z,12.30
2023-03-30T06:46:16.360Z,12.31
2023-03-30T06:48:48.616Z,12.32
2023-03-30T06:51:34.076Z,12.30
2023-03-30T06:54:03.119Z,12.32
2023-03-30T06:56:31.813Z,12.37
2023-03-30T06:59:10.514Z,12.40
2023-03-30T07:01:57.619Z,12.36
2023-03-30T07:04:46.934Z,12.35
2023-03-30T07:07:38.157Z,12.36
2023-03-30T07:10:11.269Z,12.28
2023-03-30T07:12:40.894Z,12.15
2023-03-30T07:15:12.553Z,12.36
2023-03-30T07:17:42.165Z,12.35
2023-03-30T07:20:15.057Z,12.35
2023-03-30T07:23:11.468Z,12.33
2023-03-30T07:25:41.433Z,12.34
2023-03-30T07:28:22.855Z,12.33
2023-03-30T07:30:53.126Z,12.17
2023-03-30T07:33:23.289Z,12.29
2023-03-30T07:35:53.133Z,12.32
2023-03-30T07:38:25.751Z,12.33
2023-03-30T07:40:55.876Z,12.32
2023-03-30T07:43:27.273Z,12.34
2023-03-30T07:45:59.540Z,12.39
2023-03-30T07:48:34.635Z,12.42
2023-03-30T07:51:04.907Z,12.46
2023-03-30T07:53:36.267Z,12.46
2023-03-30T07:56:11.268Z,12.45
2023-03-30T07:58:49.336Z,12.53
2023-03-30T08:01:21.395Z,12.52
2023-03-30T08:04:12.912Z,12.52
2023-03-30T08:06:42.397Z,12.53
2023-03-30T08:09:10.835Z,12.55
2023-03-30T08:11:39.735Z,12.56
2023-03-30T08:14:08.186Z,12.55
2023-03-30T08:16:39.203Z,12.49
2023-03-30T08:19:08.352Z,12.52
2023-03-30T08:21:36.622Z,12.49
2023-03-30T08:24:05.317Z,12.48
2023-03-30T08:26:33.604Z,12.44
2023-03-30T08:29:02.406Z,12.44
2023-03-30T08:31:33.044Z,12.46
2023-03-30T08:34:03.806Z,12.47
2023-03-30T08:36:32.366Z,12.48
2023-03-30T08:39:01.053Z,12.53
2023-03-30T08:41:50.886Z,12.54
2023-03-30T08:44:30.571Z,12.56
2023-03-30T08:47:00.486Z,12.58
2023-03-30T08:49:34.563Z,12.59
2023-03-30T08:52:06.019Z,12.63
2023-03-30T08:54:35.205Z,12.59
2023-03-30T08:57:11.650Z,12.65
2023-03-30T08:59:48.024Z,12.73
2023-03-30T09:02:23.524Z,12.77
2023-03-30T09:05:02.289Z,12.79
2023-03-30T09:07:33.428Z,12.74
2023-03-30T09:10:02.261Z,12.81
2023-03-30T09:12:40.056Z,12.85
2023-03-30T09:15:16.640Z,12.85
2023-03-30T09:17:48.560Z,12.70
2023-03-30T09:20:24.120Z,12.83
2023-03-30T09:22:54.714Z,12.91
2023-03-30T09:25:32.629Z,12.90
2023-03-30T09:28:07.769Z,12.91
2023-03-30T09:30:41.204Z,12.60
2023-03-30T09:33:22.467Z,12.92
2023-03-30T09:36:05.396Z,12.98
2023-03-30T09:38:34.514Z,13.02
2023-03-30T09:41:09.152Z,12.97
2023-03-30T09:43:44.251Z,13.18
2023-03-30T09:46:15.060Z,13.27
2023-03-30T09:48:45.635Z,13.37
2023-03-30T09:51:21.634Z,13.44
2023-03-30T09:53:52.821Z,13.42
2023-03-30T09:56:31.372Z,13.52
2023-03-30T09:58:59.888Z,13.63
2023-03-30T10:01:39.840Z,13.76
2023-03-30T10:04:11.905Z,13.80
2023-03-30T10:06:48.442Z,13.69
2023-03-30T10:09:20.682Z,13.93
2023-03-30T10:11:51.264Z,13.93
2023-03-30T10:14:32.124Z,13.83
2023-03-30T10:17:02.091Z,14.01
2023-03-30T10:19:31.324Z,14.09
2023-03-30T10:22:04.641Z,14.09
2023-03-30T10:24:36.892Z,14.17
2023-03-30T10:27:13.429Z,14.18
2023-03-30T10:29:46.871Z,14.28
2023-03-30T10:32:18.568Z,14.28
2023-03-30T10:34:49.315Z,14.40
2023-03-30T10:37:24.112Z,14.42
2023-03-30T10:39:53.984Z,14.47
2023-03-30T10:42:26.496Z,14.47
2023-03-30T10:44:57.301Z,14.59
2023-03-30T10:47:50.614Z,14.68
2023-03-30T10:50:28.810Z,14.76
2023-03-30T10:53:09.530Z,14.85
2023-03-30T10:55:44.477Z,14.91
2023-03-30T10:58:28.651Z,15.02
2023-03-30T11:01:08.261Z,15.14
2023-03-30T11:03:40.473Z,15.32
2023-03-30T11:06:16.488Z,15.55
2023-03-30T11:08:49.268Z,15.56
2023-03-30T11:11:22.841Z,15.68
2023-03-30T11:13:55.879Z,14.85
2023-03-30T11:16:28.602Z,15.69
2023-03-30T11:19:04.228Z,15.61
2023-03-30T11:21:37.338Z,15.28
2023-03-30T11:24:13.853Z,15.51
2023-03-30T11:26:49.275Z,15.54
2023-03-30T11:29:33.137Z,15.42
2023-03-30T11:32:26.735Z,15.68
2023-03-30T11:35:09.332Z,15.72
2023-03-30T11:37:54.174Z,15.73
2023-03-30T11:40:39.155Z,15.73
2023-03-30T11:43:18.804Z,15.80
2023-03-30T11:46:00.718Z,15.86
2023-03-30T11:49:01.386Z,15.90
2023-03-30T11:51:43.115Z,15.88
2023-03-30T11:54:27.284Z,15.86
2023-03-30T11:57:04.502Z,15.90
2023-03-30T11:59:46.616Z,15.96
2023-03-30T12:02:26.859Z,16.06
2023-03-30T12:05:01.700Z,16.19
2023-03-30T12:07:38.472Z,16.27
2023-03-30T12:10:16.038Z,16.39
2023-03-30T12:12:49.540Z,16.48
2023-03-30T12:15:36.129Z,16.53
2023-03-30T12:18:13.759Z,16.51
2023-03-30T12:20:47.305Z,16.51
2023-03-30T12:23:24.257Z,16.48
2023-03-30T12:26:08.276Z,16.54
2023-03-30T12:29:20.852Z,16.66
2023-03-30T12:32:04.350Z,16.74
2023-03-30T12:34:36.444Z,16.80
2023-03-30T12:37:10.341Z,16.82
2023-03-30T12:39:50.434Z,16.88
2023-03-30T12:42:28.047Z,16.99
2023-03-30T12:45:15.344Z,16.92
2023-03-30T12:48:08.217Z,17.04
2023-03-30T12:50:46.778Z,17.06
2023-03-30T12:53:50.447Z,17.17
2023-03-30T12:56:29.090Z,17.25
2023-03-30T12:59:28.282Z,17.37
2023-03-30T13:02:08.797Z,17.27
2023-03-30T13:04:40.159Z,17.39
2023-03-30T13:07:15.338Z,17.47
2023-03-30T13:09:56.693Z,17.58
2023-03-30T13:12:35.102Z,17.64
2023-03-30T13:15:07.538Z,17.68
2023-03-30T13:18:00.642Z,17.75
2023-03-30T13:20:32.904Z,17.04
2023-03-30T13:23:08.030Z,17.88
2023-03-30T13:25:41.955Z,17.61
2023-03-30T13:28:35.142Z,17.75
2023-03-30T13:31:17.205Z,17.77
2023-03-30T13:33:53.740Z,17.81
2023-03-30T13:36:26.261Z,17.89
2023-03-30T13:39:05.332Z,17.93
2023-03-30T13:41:44.909Z,18.06
2023-03-30T13:44:31.483Z,18.20
2023-03-30T13:47:08.595Z,18.25
2023-03-30T13:49:47.998Z,18.45
2023-03-30T13:52:20.379Z,18.67
2023-03-30T13:54:49.201Z,18.74
2023-03-30T13:57:22.961Z,18.68
2023-03-30T13:59:54.440Z,18.71
2023-03-30T14:02:25.347Z,18.78
2023-03-30T14:04:55.497Z,18.79
2023-03-30T14:07:36.492Z,18.64
2023-03-30T14:10:14.416Z,18.46
2023-03-30T14:12:49.162Z,18.25
2023-03-30T14:15:28.677Z,18.11
2023-03-30T14:17:59.802Z,18.05
2023-03-30T14:20:43.610Z,18.16
2023-03-30T14:23:19.448Z,18.09
2023-03-30T14:25:48.898Z,18.37
2023-03-30T14:28:19.227Z,18.45
2023-03-30T14:30:53.125Z,18.52
2023-03-30T14:33:22.029Z,18.61
2023-03-30T14:35:54.393Z,18.70
2023-03-30T14:38:25.180Z,18.72
2023-03-30T14:40:56.391Z,18.83
2023-03-30T14:43:26.840Z,18.87
2023-03-30T14:45:58.112Z,18.91
2023-03-30T14:48:31.833Z,18.80
2023-03-30T14:51:02.742Z,18.76
2023-03-30T14:53:32.207Z,18.75
2023-03-30T14:56:03.984Z,18.66
2023-03-30T14:58:34.024Z,18.59
2023-03-30T15:01:17.863Z,18.57
2023-03-30T15:03:48.744Z,18.58
2023-03-30T15:06:26.098Z,18.73
2023-03-30T15:09:03.275Z,18.65
2023-03-30T15:11:35.049Z,18.56
2023-03-30T15:14:09.849Z,18.49
2023-03-30T15:16:38.897Z,18.38
2023-03-30T15:19:13.134Z,18.34
2023-03-30T15:21:43.487Z,18.35
2023-03-30T15:24:18.120Z,18.39
2023-03-30T15:26:49.075Z,18.51
2023-03-30T15:29:52.576Z,18.67
2023-03-30T15:32:35.517Z,18.85
2023-03-30T15:35:22.376Z,19.01
2023-03-30T15:37:58.531Z,19.10
2023-03-30T15:40:34.026Z,19.09
2023-03-30T15:43:20.641Z,19.19
2023-03-30T15:45:52.892Z,19.21
2023-03-30T15:48:26.670Z,19.19
2023-03-30T15:50:57.832Z,19.26
2023-03-30T15:53:37.551Z,19.21
2023-03-30T15:56:08.868Z,19.07
2023-03-30T15:58:37.430Z,18.88
2023-03-30T16:01:06.891Z,18.74
2023-03-30T16:03:40.460Z,18.67
2023-03-30T16:06:13.996Z,18.54
2023-03-30T16:08:45.304Z,18.51
2023-03-30T16:11:16.376Z,18.39
2023-03-30T16:13:47.400Z,18.26
2023-03-30T16:16:18.677Z,17.99
2023-03-30T16:18:47.396Z,18.10
2023-03-30T16:21:18.552Z,18.07
2023-03-30T16:23:48.335Z,18.01
2023-03-30T16:26:16.740Z,17.97
2023-03-30T16:28:45.511Z,17.88
2023-03-30T16:31:18.538Z,17.81
2023-03-30T16:33:47.224Z,17.70
2023-03-30T16:36:16.851Z,17.66
2023-03-30T16:38:45.828Z,17.58
2023-03-30T16:41:19.642Z,17.54
2023-03-30T16:43:48.796Z,17.39
2023-03-30T16:46:19.153Z,17.42
2023-03-30T16:48:48.039Z,17.37
2023-03-30T16:51:16.744Z,17.29
2023-03-30T16:53:45.350Z,17.27
2023-03-30T16:56:18.830Z,17.26
2023-03-30T16:58:48.129Z,17.06
2023-03-30T17:01:18.860Z,17.16
2023-03-30T17:03:47.893Z,17.13
2023-03-30T17:06:17.258Z,17.09
2023-03-30T17:08:46.068Z,17.01
2023-03-30T17:11:14.680Z,16.93
2023-03-30T17:13:46.599Z,16.87
2023-03-30T17:16:16.761Z,16.79
2023-03-30T17:18:45.343Z,16.53
2023-03-30T17:21:16.610Z,16.68
2023-03-30T17:23:47.940Z,16.62
2023-03-30T17:26:16.921Z,16.58
2023-03-30T17:28:47.260Z,16.61
2023-03-30T17:31:18.106Z,16.51
2023-03-30T17:33:50.296Z,16.43
2023-03-30T17:36:21.876Z,16.41
2023-03-30T17:38:51.639Z,16.34
2023-03-30T17:44:59.941Z,16.17
2023-03-30T17:47:28.902Z,16.16
2023-03-30T17:49:58.339Z,16.11
2023-03-30T17:52:52.404Z,16.06
2023-03-30T17:55:23.323Z,15.90
2023-03-30T17:57:53.285Z,15.74
2023-03-30T18:01:56.239Z,15.76
2023-03-30T18:04:53.607Z,15.52
2023-03-30T18:07:26.928Z,15.48
2023-03-30T18:09:56.927Z,15.44
2023-03-30T18:12:28.088Z,15.29
2023-03-30T18:14:58.233Z,15.33
2023-03-30T18:17:27.248Z,15.25
2023-03-30T18:19:57.829Z,15.25
2023-03-30T18:22:26.635Z,15.19
2023-03-30T18:24:57.534Z,15.16
2023-03-30T18:27:26.144Z,15.11
2023-03-30T18:30:37.093Z,15.08
2023-03-30T18:33:08.315Z,15.01
2023-03-30T18:38:17.568Z,14.96
2023-03-30T18:40:49.561Z,14.96
2023-03-30T18:43:19.642Z,14.93
2023-03-30T18:45:50.603Z,14.84
2023-03-30T18:48:21.661Z,14.70
2023-03-30T18:50:53.104Z,14.58
2023-03-30T18:53:23.468Z,14.50
2023-03-30T18:55:53.551Z,14.47
2023-03-30T18:58:24.361Z,14.45
2023-03-30T19:00:53.967Z,14.42
2023-03-30T19:03:23.466Z,14.32
2023-03-30T19:05:53.561Z,14.27
2023-03-30T19:08:24.421Z,14.19
2023-03-30T19:10:55.637Z,13.93
2023-03-30T19:13:26.005Z,14.10
2023-03-30T19:15:54.743Z,14.06
2023-03-30T19:18:23.475Z,14.05
2023-03-30T19:20:55.632Z,14.03
2023-03-30T19:23:25.823Z,13.97
2023-03-30T19:25:55.359Z,13.84
2023-03-30T19:28:23.911Z,13.84
2023-03-30T19:30:52.692Z,13.76
2023-03-30T19:33:21.309Z,13.61
2023-03-30T19:35:49.689Z,13.49
2023-03-30T19:38:19.542Z,13.41
2023-03-30T19:40:48.046Z,13.36
2023-03-30T19:43:16.617Z,13.38
2023-03-30T19:45:51.777Z,13.37
2023-03-30T19:48:20.239Z,13.27
2023-03-30T19:50:49.696Z,13.25
2023-03-30T19:53:19.510Z,13.22
2023-03-30T19:55:49.719Z,13.20
2023-03-30T19:58:18.521Z,13.14
2023-03-30T20:00:50.497Z,13.12
2023-03-30T20:03:19.271Z,13.03
2023-03-30T20:05:52.054Z,12.94
2023-03-30T20:08:25.371Z,12.96
2023-03-30T20:10:56.609Z,12.91
2023-03-30T20:13:27.504Z,12.86
2023-03-30T20:15:57.018Z,12.81
2023-03-30T20:18:25.683Z,12.73
2023-03-30T20:20:54.055Z,12.69
2023-03-30T20:23:23.913Z,12.65
2023-03-30T20:25:54.336Z,12.65
2023-03-30T20:28:22.782Z,12.64
2023-03-30T20:30:51.243Z,12.55
2023-03-30T20:33:19.943Z,12.47
2023-03-30T20:35:52.692Z,12.38
2023-03-30T20:38:21.366Z,12.26
2023-03-30T20:40:59.282Z,12.16
2023-03-30T20:43:28.723Z,12.08
2023-03-30T20:46:02.477Z,12.12
2023-03-30T20:48:33.881Z,12.11
2023-03-30T20:51:04.656Z,12.08
2023-03-30T20:53:34.630Z,11.21
2023-03-30T20:56:05.889Z,11.88
2023-03-30T20:58:34.669Z,11.83
2023-03-30T21:01:12.824Z,11.76
2023-03-30T21:03:44.824Z,11.72
2023-03-30T21:06:18.301Z,11.73
2023-03-30T21:08:48.143Z,11.64
2023-03-30T21:11:18.132Z,11.68
2023-03-30T21:13:46.591Z,11.70
2023-03-30T21:16:15.177Z,11.67
2023-03-30T21:18:43.699Z,11.60
2023-03-30T21:21:12.201Z,11.56
2023-03-30T21:23:41.545Z,11.59
2023-03-30T21:26:09.992Z,11.62
2023-03-30T21:28:41.592Z,11.56
2023-03-30T21:31:12.261Z,11.51
2023-03-30T21:33:40.964Z,11.48
2023-03-30T21:36:10.579Z,11.52
2023-03-30T21:38:40.720Z,11.54
2023-03-30T21:41:12.522Z,11.51
2023-03-30T21:43:44.397Z,11.54
2023-03-30T21:46:14.325Z,11.52
2023-03-30T21:48:45.502Z,11.47
2023-03-30T21:51:15.588Z,11.42
2023-03-30T21:53:44.985Z,11.36
2023-03-30T21:56:13.663Z,11.25
2023-03-30T21:58:43.711Z,11.37
2023-03-30T22:01:13.172Z,11.44
2023-03-30T22:03:42.168Z,11.42
2023-03-30T22:06:13.451Z,11.42
2023-03-30T22:08:45.164Z,11.40
2023-03-30T22:11:15.451Z,11.22
2023-03-30T22:13:47.570Z,11.53
2023-03-30T22:16:18.840Z,11.60
2023-03-30T22:18:47.947Z,11.61
2023-03-30T22:21:19.012Z,11.63
2023-03-30T22:23:48.254Z,11.66
2023-03-30T22:26:17.125Z,11.64
2023-03-30T22:28:47.033Z,11.64
2023-03-30T22:31:17.237Z,11.65
2023-03-30T22:33:45.769Z,11.63
2023-03-30T22:36:19.716Z,11.63
2023-03-30T22:38:50.073Z,11.62
2023-03-30T22:41:24.139Z,11.64
2023-03-30T22:43:56.231Z,11.65
2023-03-30T22:46:27.396Z,11.71
2023-03-30T22:48:56.390Z,11.73
2023-03-30T22:51:26.745Z,11.74
2023-03-30T22:53:57.944Z,11.42
2023-03-30T22:56:27.463Z,11.83
2023-03-30T22:58:58.007Z,11.85
2023-03-30T23:01:29.230Z,11.85
2023-03-30T23:03:59.561Z,11.88
2023-03-30T23:06:28.252Z,11.91
2023-03-30T23:08:56.677Z,11.93
2023-03-30T23:11:26.529Z,11.96
2023-03-30T23:13:57.042Z,11.98
2023-03-30T23:16:27.658Z,11.99
2023-03-30T23:18:56.141Z,12.00
2023-03-30T23:21:24.534Z,11.98
2023-03-30T23:23:52.961Z,11.99
2023-03-30T23:26:21.576Z,12.00
2023-03-30T23:28:50.008Z,12.03
2023-03-30T23:31:19.941Z,12.09
2023-03-30T23:33:48.326Z,12.11
2023-03-30T23:36:17.699Z,12.11
2023-03-30T23:38:46.552Z,12.16
2023-03-30T23:41:16.352Z,12.21
2023-03-30T23:43:44.926Z,12.21
2023-03-30T23:46:13.649Z,11.94
2023-03-30T23:48:43.682Z,12.25
2023-03-30T23:51:12.465Z,12.28
2023-03-30T23:53:41.811Z,12.29
2023-03-30T23:56:13.879Z,12.11
2023-03-30T23:58:42.533Z,12.34
